Time,TemperatureF,DewpointF,PressureIn,WindDirection,WindDirectionDegrees,WindSpeedMPH,WindSpeedGustMPH,Humidity,HourlyPrecipIn,Conditions,Clouds,dailyrainin,SoftwareType,DateUTC
2013-02-20 00:01:00,71.4,64.6,29.95,NW,315,1.1,1.1,79,0.00,CLR,,0.02,WeatherDisplay:10.37,2013-02-19 13:01:00,
2013-02-20 00:06:00,71.4,64.6,29.95,West,270,0.0,0.0,79,0.00,CLR,,0.02,WeatherDisplay:10.37,2013-02-19 13:06:00,
2013-02-20 00:11:00,71.4,64.9,29.96,WNW,292,0.0,0.0,80,0.00,CLR,,0.02,WeatherDisplay:10.37,2013-02-19 13:11:00,
2013-02-20 00:16:00,71.2,64.8,29.96,WNW,292,0.0,0.0,80,0.00,CLR,,0.02,WeatherDisplay:10.37,2013-02-19 13:16:00,
2013-02-20 00:21:00,71.2,64.8,29.96,NW,315,0.0,0.0,80,0.00,CLR,,0.02,WeatherDisplay:10.37,2013-02-19 13:21:00,
2013-02-20 00:26:00,71.1,64.6,29.96,WSW,248,0.0,0.0,80,0.00,CLR,,0.02,WeatherDisplay:10.37,2013-02-19 13:26:00,
2013-02-20 00:31:00,70.9,64.4,29.95,SW,225,1.1,1.1,80,0.00,CLR,,0.02,WeatherDisplay:10.37,2013-02-19 13:31:00,
2013-02-20 00:36:00,70.9,64.8,29.95,SSW,202,1.1,1.1,81,0.00,CLR,,0.02,WeatherDisplay:10.37,2013-02-19 13:36:00,
2013-02-20 00:41:00,70.9,64.8,29.96,West,270,0.0,0.0,81,0.00,CLR,,0.02,WeatherDisplay:10.37,2013-02-19 13:41:00,
2013-02-20 00:46:00,70.7,64.6,29.95,SW,225,0.0,0.0,81,0.00,CLR,,0.02,WeatherDisplay:10.37,2013-02-19 13:46:00,
2013-02-20 00:51:00,70.5,64.4,29.95,NNW,338,0.0,0.0,81,0.00,CLR,,0.02,WeatherDisplay:10.37,2013-02-19 13:51:00,
2013-02-20 00:56:00,70.7,64.6,29.95,NW,315,0.0,0.0,81,0.00,CLR,,0.02,WeatherDisplay:10.37,2013-02-19 13:56:00,
2013-02-20 01:01:00,70.5,64.4,29.95,NNW,338,1.1,1.1,81,0.00,CLR,,0.02,WeatherDisplay:10.37,2013-02-19 14:01:00,
2013-02-20 01:06:00,70.5,64.4,29.95,NW,315,1.1,0.0,81,0.00,CLR,,0.02,WeatherDisplay:10.37,2013-02-19 14:06:00,
2013-02-20 01:11:00,70.5,64.4,29.95,West,270,0.0,0.0,81,0.00,CLR,,0.02,WeatherDisplay:10.37,2013-02-19 14:11:00,
2013-02-20 01:16:00,70.5,64.4,29.95,SSW,202,0.0,0.0,81,0.00,CLR,,0.02,WeatherDisplay:10.37,2013-02-19 14:16:00,
2013-02-20 01:21:00,70.5,64.4,29.95,SW,225,0.0,0.0,81,0.00,CLR,,0.02,WeatherDisplay:10.37,2013-02-19 14:21:00,
2013-02-20 01:26:00,70.3,64.2,29.94,NNE,22,1.1,1.1,81,0.00,CLR,,0.02,WeatherDisplay:10.37,2013-02-19 14:26:00,
2013-02-20 01:31:00,70.3,64.2,29.94,NNE,22,0.0,0.0,81,0.00,CLR,,0.02,WeatherDisplay:10.37,2013-02-19 14:31:00,
2013-02-20 01:36:00,70.3,64.2,29.94,SE,135,0.0,0.0,81,0.00,CLR,,0.02,WeatherDisplay:10.37,2013-02-19 14:36:00,
2013-02-20 01:41:00,70.3,63.9,29.94,SE,135,0.0,0.0,80,0.00,CLR,,0.02,WeatherDisplay:10.37,2013-02-19 14:41:00,
2013-02-20 01:46:00,70.2,64.1,29.94,SE,135,0.0,0.0,81,0.00,CLR,,0.02,WeatherDisplay:10.37,2013-02-19 14:46:00,
2013-02-20 01:51:00,70.0,63.9,29.94,ENE,68,0.0,0.0,81,0.00,CLR,,0.02,WeatherDisplay:10.37,2013-02-19 14:51:00,
2013-02-20 01:56:00,69.8,63.7,29.94,North,0,1.1,0.0,81,0.00,CLR,,0.02,WeatherDisplay:10.37,2013-02-19 14:56:00,
2013-02-20 02:01:00,69.6,63.5,29.94,North,0,0.0,0.0,81,0.00,CLR,,0.02,WeatherDisplay:10.37,2013-02-19 15:01:00,
2013-02-20 02:06:00,69.8,63.7,29.94,ESE,112,0.0,0.0,81,0.00,CLR,,0.02,WeatherDisplay:10.37,2013-02-19 15:06:00,
2013-02-20 02:11:00,70.0,63.9,29.94,ESE,112,0.0,0.0,81,0.00,CLR,,0.02,WeatherDisplay:10.37,2013-02-19 15:11:00,
2013-02-20 02:16:00,69.6,63.5,29.93,ESE,112,0.0,0.0,81,0.00,CLR,,0.02,WeatherDisplay:10.37,2013-02-19 15:16:00,
2013-02-20 02:21:00,69.6,63.5,29.93,SE,135,0.0,0.0,81,0.00,CLR,,0.02,WeatherDisplay:10.37,2013-02-19 15:21:00,
2013-02-20 02:26:00,69.4,63.4,29.93,SE,135,0.0,0.0,81,0.00,CLR,,0.02,WeatherDisplay:10.37,2013-02-19 15:26:00,
2013-02-20 02:31:00,69.4,63.4,29.93,SE,135,0.0,0.0,81,0.00,CLR,,0.02,WeatherDisplay:10.37,2013-02-19 15:31:00,
2013-02-20 02:36:00,69.4,63.4,29.93,SE,135,0.0,0.0,81,0.00,CLR,,0.02,WeatherDisplay:10.37,2013-02-19 15:36:00,
2013-02-20 02:41:00,69.3,63.2,29.93,SSE,158,0.0,0.0,81,0.00,CLR,,0.02,WeatherDisplay:10.37,2013-02-19 15:41:00,
2013-02-20 02:46:00,69.1,63.0,29.93,WSW,248,1.1,1.1,81,0.00,CLR,,0.02,WeatherDisplay:10.37,2013-02-19 15:46:00,
2013-02-20 02:51:00,69.4,63.7,29.93,North,0,0.0,0.0,82,0.00,CLR,,0.02,WeatherDisplay:10.37,2013-02-19 15:51:00,
2013-02-20 02:56:00,69.4,63.7,29.93,West,270,0.0,0.0,82,0.00,CLR,,0.02,WeatherDisplay:10.37,2013-02-19 15:56:00,
2013-02-20 03:01:00,69.3,63.5,29.93,SSW,202,1.1,1.1,82,0.00,CLR,,0.02,WeatherDisplay:10.37,2013-02-19 16:01:00,
2013-02-20 03:06:00,69.3,63.9,29.93,WSW,248,0.0,0.0,83,0.00,CLR,,0.02,WeatherDisplay:10.37,2013-02-19 16:06:00,
2013-02-20 03:11:00,69.4,63.7,29.93,SSW,202,0.0,0.0,82,0.00,CLR,,0.02,WeatherDisplay:10.37,2013-02-19 16:11:00,
2013-02-20 03:16:00,69.1,63.7,29.93,SW,225,0.0,0.0,83,0.00,CLR,,0.02,WeatherDisplay:10.37,2013-02-19 16:16:00,
2013-02-20 03:21:00,69.3,63.5,29.93,SE,135,0.0,0.0,82,0.00,CLR,,0.02,WeatherDisplay:10.37,2013-02-19 16:21:00,
2013-02-20 03:26:00,68.9,63.2,29.93,NNE,22,0.0,0.0,82,0.00,CLR,,0.02,WeatherDisplay:10.37,2013-02-19 16:26:00,
2013-02-20 03:31:00,68.7,63.0,29.92,North,0,0.0,0.0,82,0.00,CLR,,0.02,WeatherDisplay:10.37,2013-02-19 16:31:00,
2013-02-20 03:36:00,68.5,62.8,29.92,North,0,0.0,0.0,82,0.00,CLR,,0.02,WeatherDisplay:10.37,2013-02-19 16:36:00,
2013-02-20 03:41:00,68.7,63.0,29.92,WSW,248,0.0,0.0,82,0.00,CLR,,0.02,WeatherDisplay:10.37,2013-02-19 16:41:00,
2013-02-20 03:47:00,68.7,63.0,29.93,WSW,248,0.0,0.0,82,0.00,CLR,,0.02,WeatherDisplay:10.37,2013-02-19 16:47:00,
2013-02-20 03:52:00,68.7,63.0,29.92,South,180,0.0,0.0,82,0.00,CLR,,0.02,WeatherDisplay:10.37,2013-02-19 16:52:00,
2013-02-20 03:57:00,68.5,62.8,29.93,SW,225,0.0,0.0,82,0.00,CLR,,0.02,WeatherDisplay:10.37,2013-02-19 16:57:00,
2013-02-20 04:02:00,68.5,62.8,29.93,SW,225,0.0,0.0,82,0.00,CLR,,0.02,WeatherDisplay:10.37,2013-02-19 17:02:00,
2013-02-20 04:07:00,68.4,62.6,29.92,WNW,292,0.0,0.0,82,0.00,CLR,,0.02,WeatherDisplay:10.37,2013-02-19 17:07:00,
2013-02-20 04:12:00,68.4,63.0,29.92,North,0,0.0,0.0,83,0.00,CLR,,0.02,WeatherDisplay:10.37,2013-02-19 17:12:00,
2013-02-20 04:17:00,68.5,63.2,29.93,NNW,338,0.0,0.0,83,0.00,CLR,,0.02,WeatherDisplay:10.37,2013-02-19 17:17:00,
2013-02-20 04:22:00,68.5,63.2,29.92,NW,315,0.0,0.0,83,0.00,CLR,,0.02,WeatherDisplay:10.37,2013-02-19 17:22:00,
2013-02-20 04:27:00,68.5,63.2,29.92,WSW,248,0.0,0.0,83,0.00,CLR,,0.02,WeatherDisplay:10.37,2013-02-19 17:27:00,
2013-02-20 04:32:00,68.4,63.0,29.92,WSW,248,0.0,0.0,83,0.00,CLR,,0.02,WeatherDisplay:10.37,2013-02-19 17:32:00,
2013-02-20 04:37:00,68.4,63.0,29.92,NNE,22,0.0,0.0,83,0.00,CLR,,0.02,WeatherDisplay:10.37,2013-02-19 17:37:00,
2013-02-20 04:42:00,68.4,63.3,29.92,WNW,292,0.0,0.0,84,0.00,CLR,,0.02,WeatherDisplay:10.37,2013-02-19 17:42:00,
2013-02-20 04:47:00,68.4,63.3,29.92,South,180,0.0,0.0,84,0.00,CLR,,0.02,WeatherDisplay:10.37,2013-02-19 17:47:00,
2013-02-20 04:52:00,68.4,63.0,29.92,WSW,248,0.0,0.0,83,0.00,CLR,,0.02,WeatherDisplay:10.37,2013-02-19 17:52:00,
2013-02-20 04:57:00,68.4,63.3,29.92,NNW,338,0.0,0.0,84,0.00,CLR,,0.02,WeatherDisplay:10.37,2013-02-19 17:57:00,
2013-02-20 05:02:00,68.5,63.5,29.92,NNE,22,0.0,0.0,84,0.00,CLR,,0.02,WeatherDisplay:10.37,2013-02-19 18:02:00,
2013-02-20 05:07:00,68.5,63.2,29.92,North,0,1.1,1.1,83,0.00,CLR,,0.02,WeatherDisplay:10.37,2013-02-19 18:07:00,
2013-02-20 05:12:00,68.4,63.0,29.92,North,0,0.0,0.0,83,0.00,CLR,,0.02,WeatherDisplay:10.37,2013-02-19 18:12:00,
2013-02-20 05:17:00,68.4,63.0,29.92,North,0,1.1,1.1,83,0.00,CLR,,0.02,WeatherDisplay:10.37,2013-02-19 18:17:00,
2013-02-20 05:22:00,68.2,62.8,29.92,NNW,338,0.0,0.0,83,0.00,CLR,,0.02,WeatherDisplay:10.37,2013-02-19 18:22:00,
2013-02-20 05:27:00,68.2,62.8,29.92,WSW,248,0.0,0.0,83,0.00,CLR,,0.02,WeatherDisplay:10.37,2013-02-19 18:27:00,
2013-02-20 05:32:00,68.2,63.2,29.92,WNW,292,1.1,1.1,84,0.00,CLR,,0.02,WeatherDisplay:10.37,2013-02-19 18:32:00,
2013-02-20 05:37:00,68.2,63.2,29.93,West,270,0.0,0.0,84,0.00,CLR,,0.02,WeatherDisplay:10.37,2013-02-19 18:37:00,
2013-02-20 05:42:00,68.2,63.5,29.92,West,270,0.0,0.0,85,0.00,CLR,,0.02,WeatherDisplay:10.37,2013-02-19 18:42:00,
2013-02-20 05:47:00,68.4,63.7,29.93,NNE,22,0.0,0.0,85,0.00,CLR,,0.02,WeatherDisplay:10.37,2013-02-19 18:47:00,
2013-02-20 05:52:00,68.5,63.8,29.93,North,0,1.1,1.1,85,0.00,CLR,,0.02,WeatherDisplay:10.37,2013-02-19 18:52:00,
2013-02-20 05:57:00,68.5,63.8,29.93,NW,315,0.0,0.0,85,0.00,CLR,,0.02,WeatherDisplay:10.37,2013-02-19 18:57:00,
2013-02-20 06:02:00,68.5,63.8,29.93,NW,315,0.0,0.0,85,0.00,CLR,,0.02,WeatherDisplay:10.37,2013-02-19 19:02:00,
2013-02-20 06:07:00,68.7,64.0,29.93,West,270,0.0,0.0,85,0.00,CLR,,0.02,WeatherDisplay:10.37,2013-02-19 19:07:00,
2013-02-20 06:12:00,68.7,64.4,29.93,NNE,22,0.0,0.0,86,0.00,CLR,,0.02,WeatherDisplay:10.37,2013-02-19 19:12:00,
2013-02-20 06:17:00,68.7,64.4,29.93,SW,225,0.0,0.0,86,0.00,CLR,,0.02,WeatherDisplay:10.37,2013-02-19 19:17:00,
2013-02-20 06:22:00,68.7,64.4,29.93,WSW,248,0.0,0.0,86,0.00,CLR,,0.02,WeatherDisplay:10.37,2013-02-19 19:22:00,
2013-02-20 06:27:00,68.7,64.4,29.93,WSW,248,0.0,0.0,86,0.00,CLR,,0.02,WeatherDisplay:10.37,2013-02-19 19:27:00,
2013-02-20 06:32:00,68.7,64.0,29.94,SW,225,0.0,0.0,85,0.00,CLR,,0.02,WeatherDisplay:10.37,2013-02-19 19:32:00,
2013-02-20 06:37:00,68.5,63.8,29.94,South,180,0.0,0.0,85,0.00,CLR,,0.02,WeatherDisplay:10.37,2013-02-19 19:37:00,
2013-02-20 06:42:00,68.4,63.7,29.94,WSW,248,0.0,0.0,85,0.00,CLR,,0.02,WeatherDisplay:10.37,2013-02-19 19:42:00,
2013-02-20 06:47:00,68.4,63.7,29.94,NNW,338,1.1,0.0,85,0.00,CLR,,0.02,WeatherDisplay:10.37,2013-02-19 19:47:00,
2013-02-20 06:52:00,68.2,63.5,29.94,NNW,338,0.0,0.0,85,0.00,CLR,,0.02,WeatherDisplay:10.37,2013-02-19 19:52:00,
2013-02-20 06:57:00,68.2,63.8,29.95,West,270,0.0,0.0,86,0.00,CLR,,0.02,WeatherDisplay:10.37,2013-02-19 19:57:00,
2013-02-20 07:02:00,68.2,63.5,29.95,WSW,248,0.0,0.0,85,0.00,CLR,,0.02,WeatherDisplay:10.37,2013-02-19 20:02:00,
2013-02-20 07:07:00,68.2,63.8,29.95,WSW,248,0.0,0.0,86,0.00,CLR,,0.02,WeatherDisplay:10.37,2013-02-19 20:07:00,
2013-02-20 07:12:00,68.2,63.8,29.95,NNW,338,0.0,0.0,86,0.00,CLR,,0.02,WeatherDisplay:10.37,2013-02-19 20:12:00,
2013-02-20 07:17:00,68.2,63.8,29.95,North,0,0.0,0.0,86,0.00,CLR,,0.02,WeatherDisplay:10.37,2013-02-19 20:17:00,
2013-02-20 07:22:00,68.5,64.2,29.95,SSW,202,1.1,1.1,86,0.00,CLR,,0.02,WeatherDisplay:10.37,2013-02-19 20:22:00,
2013-02-20 07:27:00,68.5,64.2,29.95,SW,225,0.0,0.0,86,0.00,CLR,,0.02,WeatherDisplay:10.37,2013-02-19 20:27:00,
2013-02-20 07:32:00,68.7,64.7,29.95,West,270,0.0,0.0,87,0.00,CLR,,0.02,WeatherDisplay:10.37,2013-02-19 20:32:00,
2013-02-20 07:37:00,68.7,64.7,29.95,West,270,0.0,0.0,87,0.00,CLR,,0.02,WeatherDisplay:10.37,2013-02-19 20:37:00,
2013-02-20 07:42:00,68.9,64.9,29.95,South,180,0.0,0.0,87,0.00,CLR,,0.02,WeatherDisplay:10.37,2013-02-19 20:42:00,
2013-02-20 07:47:00,69.1,65.0,29.96,SSE,158,0.0,0.0,87,0.00,CLR,,0.02,WeatherDisplay:10.37,2013-02-19 20:47:00,
2013-02-20 07:52:00,69.1,65.0,29.96,South,180,1.3,1.3,87,0.00,CLR,,0.02,WeatherDisplay:10.37,2013-02-19 20:52:00,
2013-02-20 07:57:00,69.1,65.0,29.96,SW,225,1.1,1.1,87,0.00,CLR,,0.02,WeatherDisplay:10.37,2013-02-19 20:57:00,
2013-02-20 08:02:00,69.4,65.4,29.97,West,270,0.0,0.0,87,0.00,CLR,,0.02,WeatherDisplay:10.37,2013-02-19 21:02:00,
2013-02-20 08:08:00,69.6,65.6,29.97,South,180,1.1,0.0,87,0.00,CLR,,0.02,WeatherDisplay:10.37,2013-02-19 21:08:00,
2013-02-20 08:13:00,69.6,65.6,29.97,South,180,3.5,3.5,87,0.00,CLR,,0.02,WeatherDisplay:10.37,2013-02-19 21:13:00,
2013-02-20 08:18:00,69.8,66.1,29.97,South,180,3.5,3.8,88,0.00,CLR,,0.02,WeatherDisplay:10.37,2013-02-19 21:18:00,
2013-02-20 08:23:00,70.0,66.3,29.98,SSW,202,3.5,3.5,88,0.00,CLR,,0.02,WeatherDisplay:10.37,2013-02-19 21:23:00,
2013-02-20 08:28:00,70.2,66.4,29.98,SSW,204,3.5,3.5,88,0.00,CLR,,0.02,WeatherDisplay:10.37,2013-02-19 21:28:00,
2013-02-20 08:33:00,70.2,66.4,29.98,SSE,158,3.5,3.5,88,0.00,CLR,,0.02,WeatherDisplay:10.37,2013-02-19 21:33:00,
2013-02-20 08:38:00,70.3,66.6,29.98,South,180,0.0,0.0,88,0.00,CLR,,0.02,WeatherDisplay:10.37,2013-02-19 21:38:00,
2013-02-20 08:43:00,70.3,66.6,29.98,SE,135,3.5,3.5,88,0.00,CLR,,0.02,WeatherDisplay:10.37,2013-02-19 21:43:00,
2013-02-20 08:48:00,70.5,66.8,29.98,SSE,158,3.5,3.5,88,0.00,CLR,,0.02,WeatherDisplay:10.37,2013-02-19 21:48:00,
2013-02-20 08:53:00,70.5,66.8,29.98,SSE,158,2.0,2.0,88,0.00,CLR,,0.02,WeatherDisplay:10.37,2013-02-19 21:53:00,
2013-02-20 08:58:00,70.7,67.0,29.99,SSW,202,4.6,4.6,88,0.00,CLR,,0.02,WeatherDisplay:10.37,2013-02-19 21:58:00,
2013-02-20 09:03:00,71.1,67.3,29.99,SE,135,5.8,5.8,88,0.00,RA,,0.00,WeatherDisplay:10.37,2013-02-19 22:03:00,
2013-02-20 09:08:00,71.4,67.7,29.99,South,180,4.6,4.6,88,0.00,RA,,0.00,WeatherDisplay:10.37,2013-02-19 22:08:00,
2013-02-20 09:13:00,71.8,68.0,29.98,SSW,202,4.6,4.6,88,0.00,CLR,,0.00,WeatherDisplay:10.37,2013-02-19 22:13:00,
2013-02-20 09:18:00,72.1,68.4,29.98,SSE,158,7.2,7.2,88,0.00,CLR,,0.00,WeatherDisplay:10.37,2013-02-19 22:18:00,
2013-02-20 09:23:00,72.5,68.7,29.98,SSE,158,9.2,9.2,88,0.00,CLR,,0.00,WeatherDisplay:10.37,2013-02-19 22:23:00,
2013-02-20 09:28:00,73.0,68.9,29.98,SE,135,5.1,5.1,87,0.00,CLR,,0.00,WeatherDisplay:10.37,2013-02-19 22:28:00,
2013-02-20 09:33:00,73.2,68.8,29.99,SSE,158,12.7,12.7,86,0.00,CLR,,0.00,WeatherDisplay:10.37,2013-02-19 22:33:00,
2013-02-20 09:38:00,73.6,68.8,29.99,South,180,9.2,9.2,85,0.00,CLR,,0.00,WeatherDisplay:10.37,2013-02-19 22:38:00,
2013-02-20 09:43:00,73.6,68.8,29.99,South,180,6.7,6.7,85,0.00,CLR,,0.00,WeatherDisplay:10.37,2013-02-19 22:43:00,
2013-02-20 09:48:00,73.8,69.0,29.99,SSE,158,5.8,5.8,85,0.00,CLR,,0.00,WeatherDisplay:10.37,2013-02-19 22:48:00,
2013-02-20 09:53:00,73.9,68.8,29.99,SSE,158,9.2,9.2,84,0.00,CLR,,0.00,WeatherDisplay:10.37,2013-02-19 22:53:00,
2013-02-20 09:58:00,73.9,68.4,29.99,SSE,158,4.6,4.6,83,0.00,CLR,,0.00,WeatherDisplay:10.37,2013-02-19 22:58:00,
2013-02-20 10:03:00,74.1,67.6,29.99,SE,135,10.4,10.4,80,0.00,CLR,,0.00,WeatherDisplay:10.37,2013-02-19 23:03:00,
2013-02-20 10:08:00,74.1,67.6,30.00,SSE,158,6.7,6.7,80,0.00,CLR,,0.00,WeatherDisplay:10.37,2013-02-19 23:08:00,
2013-02-20 10:13:00,74.5,67.5,30.00,South,180,12.7,12.7,79,0.00,CLR,,0.00,WeatherDisplay:10.37,2013-02-19 23:13:00,
2013-02-20 10:18:00,74.3,67.4,30.00,SE,135,5.8,5.9,79,0.00,CLR,,0.00,WeatherDisplay:10.37,2013-02-19 23:18:00,
2013-02-20 10:23:00,74.8,67.5,30.00,SSE,158,10.4,10.4,78,0.00,CLR,,0.00,WeatherDisplay:10.37,2013-02-19 23:23:00,
2013-02-20 10:28:00,75.4,67.7,30.00,SE,135,10.4,10.4,77,0.00,CLR,,0.00,WeatherDisplay:10.37,2013-02-19 23:28:00,
2013-02-20 10:33:00,75.6,67.5,30.00,SE,135,12.7,12.7,76,0.00,CLR,,0.00,WeatherDisplay:10.37,2013-02-19 23:33:00,
2013-02-20 10:38:00,75.7,66.9,30.00,SSE,158,11.5,11.5,74,0.00,CLR,,0.00,WeatherDisplay:10.37,2013-02-19 23:38:00,
2013-02-20 10:43:00,75.7,66.5,30.00,SSE,158,9.8,9.8,73,0.00,CLR,,0.00,WeatherDisplay:10.37,2013-02-19 23:43:00,
2013-02-20 10:48:00,75.7,66.1,30.00,ESE,112,9.2,9.2,72,0.00,CLR,,0.00,WeatherDisplay:10.37,2013-02-19 23:48:00,
2013-02-20 10:53:00,75.7,66.1,30.00,ESE,112,8.1,8.1,72,0.00,CLR,,0.00,WeatherDisplay:10.37,2013-02-19 23:53:00,
2013-02-20 10:58:00,75.7,66.1,30.00,SE,135,5.8,5.8,72,0.00,CLR,,0.00,WeatherDisplay:10.37,2013-02-19 23:58:00,
2013-02-20 11:03:00,75.9,66.2,30.01,SSE,158,12.7,12.7,72,0.00,CLR,,0.00,WeatherDisplay:10.37,2013-02-20 00:03:00,
2013-02-20 11:08:00,75.9,65.8,30.01,SE,135,9.2,9.4,71,0.00,CLR,,0.00,WeatherDisplay:10.37,2013-02-20 00:08:00,
2013-02-20 11:13:00,75.9,65.4,30.01,ESE,112,12.7,12.7,70,0.00,CLR,,0.00,WeatherDisplay:10.37,2013-02-20 00:13:00,
2013-02-20 11:18:00,76.1,65.6,30.01,SSE,158,15.0,15.0,70,0.00,CLR,,0.00,WeatherDisplay:10.37,2013-02-20 00:18:00,
2013-02-20 11:23:00,76.1,65.2,30.01,SE,135,11.5,11.5,69,0.00,CLR,,0.00,WeatherDisplay:10.37,2013-02-20 00:23:00,
2013-02-20 11:28:00,76.3,65.4,30.01,SE,135,11.5,11.5,69,0.00,CLR,,0.00,WeatherDisplay:10.37,2013-02-20 00:28:00,
2013-02-20 11:33:00,76.5,65.5,30.01,SSE,158,10.4,10.4,69,0.00,CLR,,0.00,WeatherDisplay:10.37,2013-02-20 00:33:00,
2013-02-20 11:38:00,76.5,65.5,30.01,SE,135,9.2,9.2,69,0.00,CLR,,0.00,WeatherDisplay:10.37,2013-02-20 00:38:00,
2013-02-20 11:43:00,76.6,65.3,30.01,SSE,158,10.4,10.4,68,0.00,CLR,,0.00,WeatherDisplay:10.37,2013-02-20 00:43:00,
2013-02-20 11:48:00,76.6,65.3,30.01,SSE,158,9.8,9.8,68,0.00,CLR,,0.00,WeatherDisplay:10.37,2013-02-20 00:48:00,
2013-02-20 11:53:00,76.6,65.7,30.01,SE,135,11.5,11.5,69,0.00,CLR,,0.00,WeatherDisplay:10.37,2013-02-20 00:53:00,
2013-02-20 11:58:00,76.8,65.0,30.00,SSE,158,12.7,12.7,67,0.00,CLR,,0.00,WeatherDisplay:10.37,2013-02-20 00:58:00,
2013-02-20 12:03:00,77.2,65.8,30.01,SE,135,9.2,9.2,68,0.00,CLR,,0.00,WeatherDisplay:10.37,2013-02-20 01:03:00,
2013-02-20 12:08:00,77.0,65.2,30.00,SE,135,11.5,11.5,67,0.00,CLR,,0.00,WeatherDisplay:10.37,2013-02-20 01:08:00,
2013-02-20 12:13:00,77.4,65.5,30.00,SE,135,11.5,11.5,67,0.00,CLR,,0.00,WeatherDisplay:10.37,2013-02-20 01:13:00,
2013-02-20 12:18:00,77.2,65.4,30.01,ESE,112,11.5,11.5,67,0.00,CLR,,0.00,WeatherDisplay:10.37,2013-02-20 01:18:00,
2013-02-20 12:23:00,77.7,65.5,30.00,SE,135,12.7,12.7,66,0.00,CLR,,0.00,WeatherDisplay:10.37,2013-02-20 01:23:00,
2013-02-20 12:28:00,77.9,66.1,30.01,SE,135,9.8,9.8,67,0.00,CLR,,0.00,WeatherDisplay:10.37,2013-02-20 01:28:00,
2013-02-20 12:33:00,78.1,65.8,30.01,SSE,158,13.8,13.8,66,0.00,CLR,,0.00,WeatherDisplay:10.37,2013-02-20 01:33:00,
2013-02-20 12:38:00,78.1,65.4,30.00,SE,135,10.4,10.4,65,0.00,CLR,,0.00,WeatherDisplay:10.37,2013-02-20 01:38:00,
2013-02-20 12:43:00,78.1,65.4,30.01,SE,135,13.8,13.8,65,0.00,CLR,,0.00,WeatherDisplay:10.37,2013-02-20 01:43:00,
2013-02-20 12:48:00,78.1,65.8,30.01,NNE,22,12.7,12.7,66,0.00,CLR,,0.00,WeatherDisplay:10.37,2013-02-20 01:48:00,
2013-02-20 12:53:00,78.1,64.9,30.00,South,180,15.0,15.0,64,0.00,CLR,,0.00,WeatherDisplay:10.37,2013-02-20 01:53:00,
2013-02-20 12:58:00,78.1,65.4,30.00,SSE,158,10.4,10.4,65,0.00,CLR,,0.00,WeatherDisplay:10.37,2013-02-20 01:58:00,
2013-02-20 13:03:00,78.1,65.8,30.00,ESE,112,11.5,11.5,66,0.00,CLR,,0.00,WeatherDisplay:10.37,2013-02-20 02:03:00,
2013-02-20 13:08:00,78.1,66.2,30.00,SE,135,8.1,8.1,67,0.00,CLR,,0.00,WeatherDisplay:10.37,2013-02-20 02:08:00,
2013-02-20 13:13:00,78.1,66.2,30.00,SE,135,11.5,11.5,67,0.00,CLR,,0.00,WeatherDisplay:10.37,2013-02-20 02:13:00,
2013-02-20 13:18:00,78.1,66.2,30.00,ESE,112,12.7,12.7,67,0.00,CLR,,0.00,WeatherDisplay:10.37,2013-02-20 02:18:00,
2013-02-20 13:23:00,78.6,65.9,30.00,ESE,112,13.8,13.8,65,0.00,CLR,,0.00,WeatherDisplay:10.37,2013-02-20 02:23:00,
2013-02-20 13:28:00,78.8,66.5,30.00,SE,135,12.7,12.7,66,0.00,CLR,,0.00,WeatherDisplay:10.37,2013-02-20 02:28:00,
2013-02-20 13:33:00,79.0,66.6,30.00,SE,135,10.4,10.4,66,0.00,CLR,,0.00,WeatherDisplay:10.37,2013-02-20 02:33:00,
2013-02-20 13:38:00,79.0,65.3,30.00,East,90,11.5,11.5,63,0.00,CLR,,0.00,WeatherDisplay:10.37,2013-02-20 02:38:00,
2013-02-20 13:43:00,79.3,66.1,30.00,ESE,112,11.5,11.5,64,0.00,CLR,,0.00,WeatherDisplay:10.37,2013-02-20 02:43:00,
2013-02-20 13:48:00,79.7,66.4,30.00,East,90,11.5,11.5,64,0.00,CLR,,0.00,WeatherDisplay:10.37,2013-02-20 02:48:00,
2013-02-20 13:53:00,79.7,66.0,30.00,SE,135,10.5,10.5,63,0.00,CLR,,0.00,WeatherDisplay:10.37,2013-02-20 02:53:00,
2013-02-20 13:58:00,79.5,66.3,30.00,ESE,112,11.5,11.5,64,0.00,CLR,,0.00,WeatherDisplay:10.37,2013-02-20 02:58:00,
2013-02-20 14:03:00,79.7,66.9,29.99,South,180,11.5,11.5,65,0.00,CLR,,0.00,WeatherDisplay:10.37,2013-02-20 03:03:00,
2013-02-20 14:08:00,80.1,66.8,30.00,SE,135,13.8,13.8,64,0.00,CLR,,0.00,WeatherDisplay:10.37,2013-02-20 03:08:00,
2013-02-20 14:13:00,79.7,66.4,30.00,South,180,12.7,12.7,64,0.00,CLR,,0.00,WeatherDisplay:10.37,2013-02-20 03:13:00,
2013-02-20 14:18:00,79.7,66.4,30.00,East,90,12.7,12.7,64,0.00,CLR,,0.00,WeatherDisplay:10.37,2013-02-20 03:18:00,
2013-02-20 14:23:00,79.9,66.6,29.99,SSE,158,10.4,10.4,64,0.00,CLR,,0.00,WeatherDisplay:10.37,2013-02-20 03:23:00,
2013-02-20 14:28:00,79.9,66.6,30.00,East,90,11.8,11.8,64,0.00,CLR,,0.00,WeatherDisplay:10.37,2013-02-20 03:28:00,
2013-02-20 14:33:00,79.9,66.6,29.99,SE,135,11.5,11.5,64,0.00,CLR,,0.00,WeatherDisplay:10.37,2013-02-20 03:33:00,
2013-02-20 14:38:00,80.1,66.8,29.99,SSE,158,10.4,10.4,64,0.00,CLR,,0.00,WeatherDisplay:10.37,2013-02-20 03:38:00,
2013-02-20 14:43:00,79.5,66.3,29.99,ESE,112,10.4,10.4,64,0.00,CLR,,0.00,WeatherDisplay:10.37,2013-02-20 03:43:00,
2013-02-20 14:48:00,79.5,66.7,29.99,SE,135,5.8,5.8,65,0.00,CLR,,0.00,WeatherDisplay:10.37,2013-02-20 03:48:00,
2013-02-20 14:53:00,80.1,67.2,29.99,ENE,68,11.5,11.5,65,0.00,CLR,,0.00,WeatherDisplay:10.37,2013-02-20 03:53:00,
2013-02-20 14:58:00,79.9,67.1,29.99,SE,135,11.5,11.5,65,0.00,CLR,,0.00,WeatherDisplay:10.37,2013-02-20 03:58:00,
2013-02-20 15:03:00,79.5,67.2,29.99,ESE,112,10.4,10.4,66,0.00,CLR,,0.00,WeatherDisplay:10.37,2013-02-20 04:03:00,
2013-02-20 15:08:00,79.5,66.7,29.99,ESE,112,13.8,13.8,65,0.00,CLR,,0.00,WeatherDisplay:10.37,2013-02-20 04:08:00,
2013-02-20 15:13:00,79.5,67.2,29.99,SE,135,13.8,13.8,66,0.00,CLR,,0.00,WeatherDisplay:10.37,2013-02-20 04:13:00,
2013-02-20 15:18:00,79.5,67.2,29.99,ESE,112,11.5,11.5,66,0.00,CLR,,0.00,WeatherDisplay:10.37,2013-02-20 04:18:00,
2013-02-20 15:23:00,79.3,66.1,29.99,SSE,158,12.7,12.7,64,0.00,CLR,,0.00,WeatherDisplay:10.37,2013-02-20 04:23:00,
2013-02-20 15:28:00,79.5,66.7,29.99,SE,135,15.0,15.0,65,0.00,CLR,,0.00,WeatherDisplay:10.37,2013-02-20 04:28:00,
2013-02-20 15:33:00,79.5,66.3,29.99,ESE,112,12.7,12.7,64,0.00,CLR,,0.00,WeatherDisplay:10.37,2013-02-20 04:33:00,
2013-02-20 15:38:00,79.3,66.5,29.99,ESE,112,8.1,8.1,65,0.00,CLR,,0.00,WeatherDisplay:10.37,2013-02-20 04:38:00,
2013-02-20 15:43:00,79.3,67.0,29.99,ESE,112,15.6,15.6,66,0.00,CLR,,0.00,WeatherDisplay:10.37,2013-02-20 04:43:00,
2013-02-20 15:48:00,79.3,66.5,29.99,SE,135,11.5,11.5,65,0.00,CLR,,0.00,WeatherDisplay:10.37,2013-02-20 04:48:00,
2013-02-20 15:53:00,79.2,66.4,29.99,SSE,158,15.0,15.0,65,0.00,CLR,,0.00,WeatherDisplay:10.37,2013-02-20 04:53:00,
2013-02-20 15:59:00,79.3,66.5,29.98,East,90,6.0,6.0,65,0.00,CLR,,0.00,WeatherDisplay:10.37,2013-02-20 04:59:00,
2013-02-20 16:00:00,79.3,67.0,29.98,NE,45,5.8,5.8,66,0.00,CLR,,0.00,WeatherDisplay:10.37,2013-02-20 05:00:00,
2013-02-20 16:01:00,79.3,66.5,29.99,SSE,158,9.2,9.2,65,0.00,CLR,,0.00,WeatherDisplay:10.37,2013-02-20 05:01:00,
2013-02-20 16:06:00,79.5,66.7,29.98,SSE,158,9.8,9.8,65,0.00,CLR,,0.00,WeatherDisplay:10.37,2013-02-20 05:06:00,
2013-02-20 16:11:00,79.5,66.7,29.98,SSE,158,6.9,6.9,65,0.00,CLR,,0.00,WeatherDisplay:10.37,2013-02-20 05:11:00,
2013-02-20 16:16:00,79.3,66.5,29.99,SE,135,10.4,10.4,65,0.00,CLR,,0.00,WeatherDisplay:10.37,2013-02-20 05:16:00,
2013-02-20 16:21:00,79.7,66.4,29.98,SE,135,13.8,13.8,64,0.00,CLR,,0.00,WeatherDisplay:10.37,2013-02-20 05:21:00,
2013-02-20 16:26:00,79.9,67.1,29.98,SSE,158,11.5,11.5,65,0.00,CLR,,0.00,WeatherDisplay:10.37,2013-02-20 05:26:00,
2013-02-20 16:31:00,80.1,66.8,29.98,SE,135,10.4,10.4,64,0.00,CLR,,0.00,WeatherDisplay:10.37,2013-02-20 05:31:00,
2013-02-20 16:36:00,79.9,66.2,29.98,SE,135,11.5,11.5,63,0.00,CLR,,0.00,WeatherDisplay:10.37,2013-02-20 05:36:00,
2013-02-20 16:41:00,79.9,66.2,29.99,SE,135,11.5,11.5,63,0.00,CLR,,0.00,WeatherDisplay:10.37,2013-02-20 05:41:00,
2013-02-20 16:46:00,80.1,66.8,29.99,ESE,112,14.5,14.5,64,0.00,CLR,,0.00,WeatherDisplay:10.37,2013-02-20 05:46:00,
2013-02-20 16:51:00,80.1,66.3,29.99,SE,135,9.2,9.2,63,0.00,CLR,,0.00,WeatherDisplay:10.37,2013-02-20 05:51:00,
2013-02-20 16:56:00,80.2,67.0,29.99,South,180,10.4,10.4,64,0.00,CLR,,0.00,WeatherDisplay:10.37,2013-02-20 05:56:00,
2013-02-20 17:01:00,80.2,66.5,29.99,ESE,112,10.3,10.3,63,0.00,CLR,,0.00,WeatherDisplay:10.37,2013-02-20 06:01:00,
2013-02-20 17:06:00,80.2,66.5,29.99,ESE,112,10.1,10.1,63,0.00,CLR,,0.00,WeatherDisplay:10.37,2013-02-20 06:06:00,
2013-02-20 17:11:00,80.1,66.3,29.99,ESE,112,8.1,8.1,63,0.00,CLR,,0.00,WeatherDisplay:10.37,2013-02-20 06:11:00,
2013-02-20 17:16:00,79.9,66.2,29.99,SSE,158,8.1,8.1,63,0.00,CLR,,0.00,WeatherDisplay:10.37,2013-02-20 06:16:00,
2013-02-20 17:21:00,80.2,66.5,29.98,ESE,112,12.7,12.7,63,0.00,CLR,,0.00,WeatherDisplay:10.37,2013-02-20 06:21:00,
2013-02-20 17:26:00,80.2,66.0,29.99,South,180,11.5,11.5,62,0.00,CLR,,0.00,WeatherDisplay:10.37,2013-02-20 06:26:00,
2013-02-20 17:31:00,79.9,65.7,29.99,SE,135,11.5,11.5,62,0.00,CLR,,0.00,WeatherDisplay:10.37,2013-02-20 06:31:00,
2013-02-20 17:36:00,79.9,66.2,29.99,ESE,112,9.2,9.2,63,0.00,CLR,,0.00,WeatherDisplay:10.37,2013-02-20 06:36:00,
2013-02-20 17:41:00,79.7,65.5,29.99,SE,135,6.9,7.1,62,0.00,CLR,,0.00,WeatherDisplay:10.37,2013-02-20 06:41:00,
2013-02-20 17:46:00,79.9,65.7,29.99,SE,135,10.4,10.4,62,0.00,CLR,,0.00,WeatherDisplay:10.37,2013-02-20 06:46:00,
2013-02-20 17:51:00,79.5,65.8,29.99,SSE,158,11.5,11.5,63,0.00,CLR,,0.00,WeatherDisplay:10.37,2013-02-20 06:51:00,
2013-02-20 17:56:00,79.2,65.9,29.99,SE,135,8.7,8.7,64,0.00,CLR,,0.00,WeatherDisplay:10.37,2013-02-20 06:56:00,
2013-02-20 18:01:00,79.0,66.2,30.00,SSE,158,10.4,10.4,65,0.00,CLR,,0.00,WeatherDisplay:10.37,2013-02-20 07:01:00,
2013-02-20 18:06:00,78.6,66.3,30.00,SE,135,17.3,17.3,66,0.00,CLR,,0.00,WeatherDisplay:10.37,2013-02-20 07:06:00,
2013-02-20 18:11:00,78.4,66.6,30.00,NE,45,18.4,18.4,67,0.00,CLR,,0.00,WeatherDisplay:10.37,2013-02-20 07:11:00,
2013-02-20 18:16:00,77.7,65.9,30.00,East,90,9.2,9.2,67,0.00,CLR,,0.00,WeatherDisplay:10.37,2013-02-20 07:16:00,
2013-02-20 18:21:00,77.7,67.2,30.00,East,90,9.2,9.2,70,0.00,CLR,,0.00,WeatherDisplay:10.37,2013-02-20 07:21:00,
2013-02-20 18:26:00,77.5,67.0,30.00,East,90,4.9,4.9,70,0.00,CLR,,0.00,WeatherDisplay:10.37,2013-02-20 07:26:00,
2013-02-20 18:31:00,77.5,67.0,30.00,ENE,68,5.4,5.4,70,0.00,CLR,,0.00,WeatherDisplay:10.37,2013-02-20 07:31:00,
2013-02-20 18:36:00,77.4,67.2,30.00,East,90,5.8,5.8,71,0.00,CLR,,0.00,WeatherDisplay:10.37,2013-02-20 07:36:00,
2013-02-20 18:41:00,77.2,66.6,30.00,ESE,112,4.6,5.0,70,0.00,CLR,,0.00,WeatherDisplay:10.37,2013-02-20 07:41:00,
2013-02-20 18:46:00,76.8,66.3,29.99,SE,135,8.1,8.1,70,0.00,CLR,,0.00,WeatherDisplay:10.37,2013-02-20 07:46:00,
2013-02-20 18:51:00,76.6,66.1,30.00,SE,135,5.8,5.8,70,0.02,RA,,0.02,WeatherDisplay:10.37,2013-02-20 07:51:00,
2013-02-20 18:56:00,76.6,66.1,30.00,SE,135,4.6,4.6,70,0.02,RA,,0.02,WeatherDisplay:10.37,2013-02-20 07:56:00,
2013-02-20 19:05:00,76.5,65.5,30.00,South,180,4.6,4.6,69,0.02,CLR,,0.02,WeatherDisplay:10.37,2013-02-20 08:05:00,
2013-02-20 19:10:00,76.5,65.5,30.00,SE,135,6.7,6.7,69,0.02,CLR,,0.02,WeatherDisplay:10.37,2013-02-20 08:10:00,
2013-02-20 19:15:00,76.5,65.5,30.00,ESE,112,6.9,6.9,69,0.02,CLR,,0.02,WeatherDisplay:10.37,2013-02-20 08:15:00,
2013-02-20 19:20:00,76.3,65.4,30.01,SE,135,3.5,3.5,69,0.02,CLR,,0.02,WeatherDisplay:10.37,2013-02-20 08:20:00,
2013-02-20 19:25:00,76.1,66.0,30.01,SE,135,6.9,6.9,71,0.02,CLR,,0.02,WeatherDisplay:10.37,2013-02-20 08:25:00,
2013-02-20 19:30:00,75.7,65.7,30.01,SE,135,4.6,4.6,71,0.02,CLR,,0.02,WeatherDisplay:10.37,2013-02-20 08:30:00,
2013-02-20 19:35:00,75.6,65.9,30.02,SSE,158,5.8,5.8,72,0.02,CLR,,0.02,WeatherDisplay:10.37,2013-02-20 08:35:00,
2013-02-20 19:40:00,75.2,65.9,30.02,South,180,4.6,4.6,73,0.02,CLR,,0.02,WeatherDisplay:10.37,2013-02-20 08:40:00,
2013-02-20 19:45:00,75.0,66.2,30.02,SSW,202,4.6,4.6,74,0.02,CLR,,0.02,WeatherDisplay:10.37,2013-02-20 08:45:00,
2013-02-20 19:50:00,74.8,66.0,30.02,South,180,5.8,5.8,74,0.00,CLR,,0.02,WeatherDisplay:10.37,2013-02-20 08:50:00,
2013-02-20 19:55:00,74.8,66.4,30.02,SSW,202,5.8,5.8,75,0.00,CLR,,0.02,WeatherDisplay:10.37,2013-02-20 08:55:00,
2013-02-20 20:00:00,74.5,66.0,30.02,SW,225,2.3,2.3,75,0.00,CLR,,0.02,WeatherDisplay:10.37,2013-02-20 09:00:00,
2013-02-20 20:05:00,74.5,66.0,30.03,SW,225,2.3,2.3,75,0.00,CLR,,0.02,WeatherDisplay:10.37,2013-02-20 09:05:00,
2013-02-20 20:10:00,74.5,66.0,30.02,SSW,202,3.5,3.5,75,0.00,CLR,,0.02,WeatherDisplay:10.37,2013-02-20 09:10:00,
2013-02-20 20:15:00,74.5,66.0,30.02,SW,225,2.2,2.2,75,0.00,CLR,,0.02,WeatherDisplay:10.37,2013-02-20 09:15:00,
2013-02-20 20:20:00,74.5,66.4,30.03,SW,225,3.5,3.5,76,0.00,CLR,,0.02,WeatherDisplay:10.37,2013-02-20 09:20:00,
2013-02-20 20:25:00,74.3,66.2,30.03,South,180,1.1,1.1,76,0.00,CLR,,0.02,WeatherDisplay:10.37,2013-02-20 09:25:00,
2013-02-20 20:30:00,74.3,66.6,30.03,SW,225,5.8,5.8,77,0.04,RA,,0.06,WeatherDisplay:10.37,2013-02-20 09:30:00,
2013-02-20 20:35:00,73.8,66.5,30.03,SSE,158,2.3,2.3,78,0.04,RA,,0.06,WeatherDisplay:10.37,2013-02-20 09:35:00,
2013-02-20 20:40:00,73.8,67.2,30.03,SSE,158,2.5,2.5,80,0.04,CLR,,0.06,WeatherDisplay:10.37,2013-02-20 09:40:00,
2013-02-20 20:45:00,73.6,67.0,30.03,South,180,2.3,2.3,80,0.04,CLR,,0.06,WeatherDisplay:10.37,2013-02-20 09:45:00,
2013-02-20 20:50:00,73.6,67.0,30.03,WSW,248,0.0,0.0,80,0.04,CLR,,0.06,WeatherDisplay:10.37,2013-02-20 09:50:00,
2013-02-20 20:55:00,73.6,67.0,30.03,WSW,248,1.1,1.1,80,0.04,CLR,,0.06,WeatherDisplay:10.37,2013-02-20 09:55:00,
2013-02-20 21:00:00,73.6,67.0,30.03,WNW,292,1.1,1.1,80,0.04,CLR,,0.06,WeatherDisplay:10.37,2013-02-20 10:00:00,
2013-02-20 21:05:00,73.6,67.0,30.04,WSW,248,0.0,0.0,80,0.04,CLR,,0.06,WeatherDisplay:10.37,2013-02-20 10:05:00,
2013-02-20 21:10:00,73.4,67.2,30.04,NW,315,0.0,0.0,81,0.04,CLR,,0.06,WeatherDisplay:10.37,2013-02-20 10:10:00,
2013-02-20 21:15:00,73.2,67.0,30.03,WSW,248,0.0,0.0,81,0.04,CLR,,0.06,WeatherDisplay:10.37,2013-02-20 10:15:00,
2013-02-20 21:20:00,73.2,67.4,30.04,NW,315,1.1,1.1,82,0.04,CLR,,0.06,WeatherDisplay:10.37,2013-02-20 10:20:00,
2013-02-20 21:25:00,73.2,67.4,30.04,SW,225,1.1,1.1,82,0.04,CLR,,0.06,WeatherDisplay:10.37,2013-02-20 10:25:00,
2013-02-20 21:30:00,73.2,67.4,30.04,West,270,1.1,1.1,82,0.02,CLR,,0.06,WeatherDisplay:10.37,2013-02-20 10:30:00,
2013-02-20 21:35:00,73.0,67.2,30.04,WSW,248,1.1,0.0,82,0.00,CLR,,0.06,WeatherDisplay:10.37,2013-02-20 10:35:00,
2013-02-20 21:40:00,73.0,67.2,30.04,West,270,1.1,1.1,82,0.00,CLR,,0.06,WeatherDisplay:10.37,2013-02-20 10:40:00,
2013-02-20 21:45:00,73.0,67.2,30.03,SSW,202,0.0,0.0,82,0.00,CLR,,0.06,WeatherDisplay:10.37,2013-02-20 10:45:00,
2013-02-20 21:50:00,72.7,66.9,30.04,WNW,292,0.0,0.0,82,0.00,CLR,,0.06,WeatherDisplay:10.37,2013-02-20 10:50:00,
2013-02-20 21:55:00,72.7,66.9,30.04,West,270,1.1,1.1,82,0.00,CLR,,0.06,WeatherDisplay:10.37,2013-02-20 10:55:00,
2013-02-20 22:00:00,72.7,66.9,30.04,WNW,292,3.5,3.5,82,0.00,CLR,,0.06,WeatherDisplay:10.37,2013-02-20 11:00:00,
2013-02-20 22:05:00,72.7,66.9,30.04,West,270,0.0,0.0,82,0.00,CLR,,0.06,WeatherDisplay:10.37,2013-02-20 11:05:00,
2013-02-20 22:10:00,72.5,66.7,30.04,SW,225,1.1,1.1,82,0.00,CLR,,0.06,WeatherDisplay:10.37,2013-02-20 11:10:00,
2013-02-20 22:15:00,72.5,66.7,30.04,East,90,0.0,0.0,82,0.00,CLR,,0.06,WeatherDisplay:10.37,2013-02-20 11:15:00,
2013-02-20 22:20:00,72.7,67.2,30.04,WSW,248,1.1,1.1,83,0.00,CLR,,0.06,WeatherDisplay:10.37,2013-02-20 11:20:00,
2013-02-20 22:25:00,72.7,66.9,30.04,NW,315,0.0,0.0,82,0.00,CLR,,0.06,WeatherDisplay:10.37,2013-02-20 11:25:00,
2013-02-20 22:30:00,72.5,67.0,30.04,West,270,0.0,0.2,83,0.00,CLR,,0.06,WeatherDisplay:10.37,2013-02-20 11:30:00,
2013-02-20 22:35:00,72.3,66.9,30.03,West,270,0.0,0.0,83,0.00,CLR,,0.06,WeatherDisplay:10.37,2013-02-20 11:35:00,
2013-02-20 22:40:00,72.3,66.9,30.03,WSW,248,0.0,0.0,83,0.00,CLR,,0.06,WeatherDisplay:10.37,2013-02-20 11:40:00,
2013-02-20 22:45:00,72.3,66.9,30.03,WSW,248,1.1,1.1,83,0.00,CLR,,0.06,WeatherDisplay:10.37,2013-02-20 11:45:00,
2013-02-20 22:50:00,72.1,66.7,30.03,West,270,1.1,1.1,83,0.00,CLR,,0.06,WeatherDisplay:10.37,2013-02-20 11:50:00,
2013-02-20 22:55:00,72.1,66.7,30.03,West,270,0.0,0.0,83,0.00,CLR,,0.06,WeatherDisplay:10.37,2013-02-20 11:55:00,
2013-02-20 23:00:00,72.1,66.7,30.03,WNW,292,1.1,1.1,83,0.00,CLR,,0.06,WeatherDisplay:10.37,2013-02-20 12:00:00,
2013-02-20 23:05:00,72.0,66.5,30.03,WSW,248,2.3,2.3,83,0.00,CLR,,0.06,WeatherDisplay:10.37,2013-02-20 12:05:00,
2013-02-20 23:10:00,72.0,66.5,30.03,WSW,248,2.3,2.3,83,0.00,CLR,,0.06,WeatherDisplay:10.37,2013-02-20 12:10:00,
2013-02-20 23:15:00,71.8,66.3,30.03,West,270,0.0,0.0,83,0.00,CLR,,0.06,WeatherDisplay:10.37,2013-02-20 12:15:00,
2013-02-20 23:20:00,71.8,66.3,30.03,WSW,248,1.1,0.0,83,0.00,CLR,,0.06,WeatherDisplay:10.37,2013-02-20 12:20:00,
2013-02-20 23:25:00,71.8,66.3,30.03,West,270,0.0,0.0,83,0.00,CLR,,0.06,WeatherDisplay:10.37,2013-02-20 12:25:00,
2013-02-20 23:30:00,71.6,66.2,30.03,SW,225,0.0,0.0,83,0.00,CLR,,0.06,WeatherDisplay:10.37,2013-02-20 12:30:00,
2013-02-20 23:35:00,71.6,66.2,30.02,SW,225,0.0,0.0,83,0.00,CLR,,0.06,WeatherDisplay:10.37,2013-02-20 12:35:00,
2013-02-20 23:40:00,71.4,66.0,30.02,West,270,1.1,1.1,83,0.00,CLR,,0.06,WeatherDisplay:10.37,2013-02-20 12:40:00,
2013-02-20 23:45:00,71.4,66.0,30.02,WNW,292,0.0,0.0,83,0.00,CLR,,0.06,WeatherDisplay:10.37,2013-02-20 12:45:00,
2013-02-20 23:50:00,71.2,65.8,30.02,WSW,248,1.1,0.0,83,0.00,CLR,,0.06,WeatherDisplay:10.37,2013-02-20 12:50:00,
2013-02-20 23:55:00,71.2,65.8,30.02,SW,225,0.0,0.0,83,0.00,CLR,,0.06,WeatherDisplay:10.37,2013-02-20 12:55:00,